createdAt,value
2018-07-21T00:00:29.215Z,23.02
2018-07-21T00:01:29.240Z,23.02
2018-07-21T00:02:29.205Z,22.95
2018-07-21T00:03:29.218Z,23.00
2018-07-21T00:04:29.188Z,22.98
2018-07-21T00:05:29.182Z,22.94
2018-07-21T00:06:29.167Z,22.88
2018-07-21T00:07:29.197Z,22.95
2018-07-21T00:08:29.287Z,22.91
2018-07-21T00:09:29.148Z,22.92
2018-07-21T00:10:29.152Z,22.95
2018-07-21T00:11:29.146Z,22.85
2018-07-21T00:12:29.147Z,22.92
2018-07-21T00:13:29.207Z,22.88
2018-07-21T00:14:29.130Z,22.86
2018-07-21T00:15:29.115Z,22.77
2018-07-21T00:16:29.116Z,22.83
2018-07-21T00:17:29.111Z,22.83
2018-07-21T00:18:29.103Z,22.85
2018-07-21T00:19:29.123Z,22.91
2018-07-21T00:20:29.100Z,22.82
2018-07-21T00:21:29.087Z,22.82
2018-07-21T00:22:29.106Z,22.80
2018-07-21T00:23:29.084Z,22.79
2018-07-21T00:24:29.064Z,22.79
2018-07-21T00:25:29.077Z,22.77
2018-07-21T00:26:29.049Z,22.77
2018-07-21T00:27:29.063Z,22.83
2018-07-21T00:28:29.054Z,22.79
2018-07-21T00:29:29.053Z,22.90
2018-07-21T00:30:29.044Z,22.83
2018-07-21T00:31:29.060Z,22.82
2018-07-21T00:32:29.040Z,22.85
2018-07-21T00:33:29.053Z,22.88
2018-07-21T00:34:29.007Z,22.83
2018-07-21T00:35:29.010Z,22.83
2018-07-21T00:36:28.999Z,22.77
2018-07-21T00:37:29.003Z,22.82
2018-07-21T00:38:29.025Z,22.82
2018-07-21T00:39:28.987Z,22.75
2018-07-21T00:40:28.979Z,22.77
2018-07-21T00:41:28.975Z,22.80
2018-07-21T00:42:28.987Z,22.79
2018-07-21T00:43:28.953Z,22.85
2018-07-21T00:44:28.963Z,22.75
2018-07-21T00:45:29.300Z,22.76
2018-07-21T00:46:28.943Z,22.75
2018-07-21T00:47:28.944Z,22.76
2018-07-21T00:48:28.926Z,22.68
2018-07-21T00:49:28.935Z,22.70
2018-07-21T00:50:28.928Z,22.70
2018-07-21T00:51:28.932Z,22.67
2018-07-21T00:52:28.921Z,22.67
2018-07-21T00:53:28.916Z,22.64
2018-07-21T00:54:28.909Z,22.68
2018-07-21T00:55:28.926Z,22.57
2018-07-21T00:56:28.884Z,22.60
2018-07-21T00:57:28.891Z,22.60
2018-07-21T00:58:28.874Z,22.64
2018-07-21T00:59:28.869Z,22.58
2018-07-21T01:00:28.861Z,22.61
2018-07-21T01:01:28.851Z,22.52
2018-07-21T01:02:28.906Z,22.55
2018-07-21T01:03:28.835Z,22.57
2018-07-21T01:04:28.840Z,22.57
2018-07-21T01:05:28.846Z,22.49
2018-07-21T01:06:28.830Z,22.47
2018-07-21T01:07:28.819Z,22.45
2018-07-21T01:08:28.860Z,22.51
2018-07-21T01:09:28.816Z,22.46
2018-07-21T01:10:28.805Z,22.47
2018-07-21T01:11:28.790Z,22.45
2018-07-21T01:12:28.791Z,22.52
2018-07-21T01:13:28.813Z,22.46
2018-07-21T01:14:28.780Z,22.54
2018-07-21T01:15:28.771Z,22.49
2018-07-21T01:16:28.769Z,22.52
2018-07-21T01:17:28.767Z,22.52
2018-07-21T01:18:28.753Z,22.52
2018-07-21T01:19:28.780Z,22.43
2018-07-21T01:20:28.754Z,22.52
2018-07-21T01:21:28.742Z,22.54
2018-07-21T01:22:28.738Z,22.55
2018-07-21T01:23:28.733Z,22.47
2018-07-21T01:24:28.728Z,22.57
2018-07-21T01:25:28.714Z,22.47
2018-07-21T01:26:28.702Z,22.58
2018-07-21T01:27:28.712Z,22.47
2018-07-21T01:28:28.701Z,22.47
2018-07-21T01:29:28.695Z,22.45
2018-07-21T01:30:28.725Z,22.42
2018-07-21T01:31:28.678Z,22.47
2018-07-21T01:32:28.675Z,22.40
2018-07-21T01:33:28.676Z,22.43
2018-07-21T01:34:28.686Z,22.42
2018-07-21T01:35:28.669Z,22.43
2018-07-21T01:36:28.652Z,22.42
2018-07-21T01:37:28.645Z,22.49
2018-07-21T01:38:28.638Z,22.47
2018-07-21T01:39:28.672Z,22.47
2018-07-21T01:40:28.677Z,22.39
2018-07-21T01:41:28.620Z,22.51
2018-07-21T01:42:28.616Z,22.51
2018-07-21T01:43:28.614Z,22.46
2018-07-21T01:44:28.602Z,22.46
2018-07-21T01:45:28.594Z,22.51
2018-07-21T01:46:28.611Z,22.39
2018-07-21T01:47:28.575Z,22.35
2018-07-21T01:48:28.588Z,22.43
2018-07-21T01:49:28.576Z,22.37
2018-07-21T01:50:28.573Z,22.40
2018-07-21T01:51:28.641Z,22.40
2018-07-21T01:52:28.559Z,22.39
2018-07-21T01:53:28.552Z,22.42
2018-07-21T01:54:28.544Z,22.51
2018-07-21T01:55:28.555Z,22.36
2018-07-21T01:56:28.534Z,22.36
2018-07-21T01:57:28.846Z,22.46
2018-07-21T01:58:28.519Z,22.33
2018-07-21T01:59:28.518Z,22.42
2018-07-21T02:00:28.514Z,22.40
2018-07-21T02:01:28.499Z,22.45
2018-07-21T02:02:28.500Z,22.51
2018-07-21T02:03:28.506Z,22.49
2018-07-21T02:04:28.485Z,22.40
2018-07-21T02:05:28.470Z,22.49
2018-07-21T02:06:28.467Z,22.46
2018-07-21T02:07:28.505Z,22.49
2018-07-21T02:08:28.502Z,22.49
2018-07-21T02:09:28.462Z,22.49
2018-07-21T02:10:28.457Z,22.54
2018-07-21T02:11:28.444Z,22.51
2018-07-21T02:12:28.436Z,22.45
2018-07-21T02:13:28.433Z,22.55
2018-07-21T02:14:28.444Z,22.52
2018-07-21T02:15:28.414Z,22.37
2018-07-21T02:16:28.411Z,22.47
2018-07-21T02:17:28.403Z,22.52
2018-07-21T02:18:28.424Z,22.49
2018-07-21T02:19:28.386Z,22.49
2018-07-21T02:20:28.383Z,22.54
2018-07-21T02:21:28.385Z,22.51
2018-07-21T02:22:28.390Z,22.54
2018-07-21T02:23:28.422Z,22.51
2018-07-21T02:24:28.365Z,22.47
2018-07-21T02:25:28.357Z,22.45
2018-07-21T02:26:28.341Z,22.42
2018-07-21T02:27:28.348Z,22.42
2018-07-21T02:28:28.337Z,22.39
2018-07-21T02:29:28.348Z,22.37
2018-07-21T02:30:28.319Z,22.43
2018-07-21T02:31:28.320Z,22.42
2018-07-21T02:32:28.316Z,22.36
2018-07-21T02:33:28.307Z,22.36
2018-07-21T02:34:28.341Z,22.33
2018-07-21T02:35:28.289Z,22.36
2018-07-21T02:36:28.294Z,22.22
2018-07-21T02:37:28.282Z,22.20
2018-07-21T02:38:28.308Z,22.07
2018-07-21T02:39:28.276Z,22.07
2018-07-21T02:40:28.267Z,21.91
2018-07-21T02:41:28.269Z,21.91
2018-07-21T02:42:28.256Z,21.86
2018-07-21T02:43:28.237Z,21.83
2018-07-21T02:44:28.253Z,21.84
2018-07-21T02:45:28.435Z,21.79
2018-07-21T02:46:28.240Z,21.77
2018-07-21T02:47:28.235Z,21.67
2018-07-21T02:48:28.208Z,21.64
2018-07-21T02:49:28.204Z,21.64
2018-07-21T02:50:28.205Z,21.62
2018-07-21T02:51:28.193Z,21.61
2018-07-21T02:52:28.195Z,21.61
2018-07-21T02:53:28.196Z,21.61
2018-07-21T02:54:28.172Z,21.59
2018-07-21T02:55:28.164Z,21.56
2018-07-21T02:56:28.212Z,21.50
2018-07-21T02:57:28.155Z,21.50
2018-07-21T02:58:28.152Z,21.44
2018-07-21T02:59:28.149Z,21.34
2018-07-21T03:00:28.181Z,21.27
2018-07-21T03:01:28.136Z,21.19
2018-07-21T03:02:28.125Z,21.17
2018-07-21T03:03:28.116Z,21.07
2018-07-21T03:04:28.118Z,20.98
2018-07-21T03:05:28.103Z,20.99
2018-07-21T03:06:28.125Z,20.84
2018-07-21T03:07:28.114Z,20.87
2018-07-21T03:08:28.091Z,20.74
2018-07-21T03:09:28.082Z,20.66
2018-07-21T03:10:28.079Z,20.61
2018-07-21T03:11:28.107Z,20.52
2018-07-21T03:12:28.059Z,20.59
2018-07-21T03:13:28.054Z,20.54
2018-07-21T03:14:28.078Z,20.67
2018-07-21T03:15:28.043Z,20.64
2018-07-21T03:16:28.039Z,20.70
2018-07-21T03:17:28.018Z,20.62
2018-07-21T03:18:28.009Z,20.74
2018-07-21T03:19:28.055Z,20.80
2018-07-21T03:20:28.006Z,20.80
2018-07-21T03:21:27.996Z,20.91
2018-07-21T03:22:27.994Z,20.67
2018-07-21T03:23:27.978Z,20.69
2018-07-21T03:24:27.984Z,20.59
2018-07-21T03:25:28.029Z,20.57
2018-07-21T03:26:27.961Z,20.41
2018-07-21T03:27:27.959Z,20.33
2018-07-21T03:28:27.949Z,20.43
2018-07-21T03:29:27.930Z,20.43
2018-07-21T03:30:27.951Z,20.32
2018-07-21T03:31:27.974Z,20.32
2018-07-21T03:32:27.927Z,20.31
2018-07-21T03:33:27.915Z,20.24
2018-07-21T03:34:27.906Z,20.31
2018-07-21T03:35:27.898Z,20.33
2018-07-21T03:36:27.916Z,20.35
2018-07-21T03:37:27.912Z,20.32
2018-07-21T03:38:27.879Z,20.29
2018-07-21T03:39:27.880Z,20.16
2018-07-21T03:40:27.913Z,20.18
2018-07-21T03:41:27.876Z,20.13
2018-07-21T03:42:27.852Z,20.08
2018-07-21T03:43:27.848Z,20.13
2018-07-21T03:44:27.825Z,19.99
2018-07-21T03:45:27.828Z,19.98
2018-07-21T03:46:27.883Z,19.99
2018-07-21T03:47:27.814Z,20.08
2018-07-21T03:48:27.793Z,20.03
2018-07-21T03:49:27.798Z,20.17
2018-07-21T03:50:27.792Z,20.10
2018-07-21T03:51:27.792Z,20.13
2018-07-21T03:52:27.820Z,20.17
2018-07-21T03:53:27.758Z,20.26
2018-07-21T03:54:27.765Z,20.24
2018-07-21T03:55:27.759Z,20.24
2018-07-21T03:56:27.754Z,20.31
2018-07-21T03:57:27.764Z,20.33
2018-07-21T03:58:27.731Z,20.38
2018-07-21T03:59:27.734Z,20.35
2018-07-21T04:00:27.724Z,20.42
2018-07-21T04:01:27.772Z,20.38
2018-07-21T04:02:27.705Z,20.33
2018-07-21T04:03:27.703Z,20.39
2018-07-21T04:04:27.684Z,20.43
2018-07-21T04:05:27.668Z,20.43
2018-07-21T04:06:27.667Z,20.48
2018-07-21T04:07:27.927Z,20.47
2018-07-21T04:08:27.660Z,20.59
2018-07-21T04:09:27.652Z,20.54
2018-07-21T04:10:27.644Z,20.52
2018-07-21T04:11:27.625Z,20.50
2018-07-21T04:12:27.628Z,20.48
2018-07-21T04:13:27.620Z,20.51
2018-07-21T04:14:27.609Z,20.50
2018-07-21T04:15:27.602Z,20.57
2018-07-21T04:16:27.632Z,20.59
2018-07-21T04:17:27.597Z,20.55
2018-07-21T04:18:27.631Z,20.66
2018-07-21T04:19:27.573Z,20.59
2018-07-21T04:20:27.575Z,20.57
2018-07-21T04:21:27.608Z,20.48
2018-07-21T04:22:27.602Z,20.50
2018-07-21T04:23:27.565Z,20.51
2018-07-21T04:24:27.909Z,20.48
2018-07-21T04:25:27.548Z,20.48
2018-07-21T04:26:27.539Z,20.48
2018-07-21T04:27:27.530Z,20.42
2018-07-21T04:28:27.527Z,20.47
2018-07-21T04:29:27.507Z,20.39
2018-07-21T04:30:27.509Z,20.41
2018-07-21T04:31:27.489Z,20.50
2018-07-21T04:32:27.480Z,20.43
2018-07-21T04:33:27.483Z,20.42
2018-07-21T04:34:27.463Z,20.38
2018-07-21T04:35:27.465Z,20.41
2018-07-21T04:36:27.485Z,20.42
2018-07-21T04:37:27.439Z,20.35
2018-07-21T04:38:27.442Z,20.35
2018-07-21T04:39:27.435Z,20.29
2018-07-21T04:40:27.429Z,20.31
2018-07-21T04:41:27.429Z,20.24
2018-07-21T04:42:27.436Z,20.20
2018-07-21T04:43:27.420Z,20.32
2018-07-21T04:44:27.390Z,20.36
2018-07-21T04:45:27.395Z,20.23
2018-07-21T04:46:27.413Z,20.28
2018-07-21T04:47:27.372Z,20.31
2018-07-21T04:48:27.379Z,20.24
2018-07-21T04:49:27.370Z,20.28
2018-07-21T04:50:27.355Z,20.35
2018-07-21T04:51:27.458Z,20.36
2018-07-21T04:52:27.331Z,20.33
2018-07-21T04:53:27.328Z,20.29
2018-07-21T04:54:27.331Z,20.33
2018-07-21T04:55:27.315Z,20.36
2018-07-21T04:56:27.313Z,20.33
2018-07-21T04:57:27.340Z,20.33
2018-07-21T04:58:27.295Z,20.39
2018-07-21T04:59:27.289Z,20.43
2018-07-21T05:00:27.280Z,20.39
2018-07-21T05:01:27.268Z,20.38
2018-07-21T05:02:27.269Z,20.38
2018-07-21T05:03:27.267Z,20.43
2018-07-21T05:04:27.249Z,20.31
2018-07-21T05:05:27.238Z,20.31
2018-07-21T05:06:27.231Z,20.18
2018-07-21T05:07:27.282Z,20.08
2018-07-21T05:08:27.256Z,20.10
2018-07-21T05:09:27.216Z,20.05
2018-07-21T05:10:27.213Z,19.96
2018-07-21T05:11:27.200Z,19.99
2018-07-21T05:12:27.190Z,20.02
2018-07-21T05:13:27.229Z,19.99
2018-07-21T05:14:27.182Z,19.96
2018-07-21T05:15:27.179Z,19.99
2018-07-21T05:16:27.188Z,20.06
2018-07-21T05:17:27.156Z,20.02
2018-07-21T05:18:27.148Z,19.99
2018-07-21T05:19:27.139Z,20.03
2018-07-21T05:20:27.162Z,20.06
2018-07-21T05:21:27.153Z,20.05
2018-07-21T05:22:27.119Z,20.11
2018-07-21T05:23:27.109Z,20.06
2018-07-21T05:24:27.092Z,20.02
2018-07-21T05:25:27.101Z,20.10
2018-07-21T05:26:27.189Z,19.96
2018-07-21T05:27:27.080Z,20.02
2018-07-21T05:28:27.075Z,20.03
2018-07-21T05:29:27.070Z,20.01
2018-07-21T05:30:27.078Z,20.16
2018-07-21T05:31:27.050Z,20.08
2018-07-21T05:32:27.039Z,20.14
2018-07-21T05:33:27.053Z,20.08
2018-07-21T05:34:27.022Z,20.08
2018-07-21T05:35:27.016Z,20.10
2018-07-21T05:36:27.013Z,20.14
2018-07-21T05:37:27.025Z,20.16
2018-07-21T05:38:26.986Z,20.14
2018-07-21T05:39:26.997Z,20.17
2018-07-21T05:40:26.989Z,20.13
2018-07-21T05:41:26.991Z,20.10
2018-07-21T05:42:26.970Z,20.21
2018-07-21T05:43:26.958Z,20.28
2018-07-21T05:44:26.960Z,20.23
2018-07-21T05:45:26.949Z,20.11
2018-07-21T05:46:26.943Z,20.17
2018-07-21T05:47:26.966Z,20.24
2018-07-21T05:48:26.951Z,20.23
2018-07-21T05:49:26.937Z,20.28
2018-07-21T05:50:26.929Z,20.14
2018-07-21T05:51:26.897Z,20.14
2018-07-21T05:52:26.891Z,20.17
2018-07-21T05:53:26.921Z,20.20
2018-07-21T05:54:26.908Z,20.26
2018-07-21T05:55:26.882Z,20.20
2018-07-21T05:56:26.870Z,20.13
2018-07-21T05:57:26.879Z,20.20
2018-07-21T05:58:26.890Z,20.14
2018-07-21T05:59:26.836Z,20.14
2018-07-21T06:00:26.829Z,20.10
2018-07-21T06:01:26.820Z,20.08
2018-07-21T06:02:26.839Z,20.18
2018-07-21T06:03:26.838Z,20.16
2018-07-21T06:04:26.804Z,20.31
2018-07-21T06:05:26.803Z,20.31
2018-07-21T06:06:26.790Z,20.33
2018-07-21T06:07:26.786Z,20.33
2018-07-21T06:08:26.770Z,20.36
2018-07-21T06:09:26.772Z,20.41
2018-07-21T06:10:26.773Z,20.51
2018-07-21T06:11:26.743Z,20.42
2018-07-21T06:12:26.750Z,20.41
2018-07-21T06:13:26.745Z,20.59
2018-07-21T06:14:26.933Z,20.61
2018-07-21T06:15:26.720Z,20.69
2018-07-21T06:16:26.710Z,20.64
2018-07-21T06:17:26.709Z,20.62
2018-07-21T06:18:26.699Z,20.64
2018-07-21T06:19:26.727Z,20.72
2018-07-21T06:20:26.685Z,20.70
2018-07-21T06:21:26.671Z,20.76
2018-07-21T06:22:26.697Z,20.76
2018-07-21T06:23:26.686Z,20.70
2018-07-21T06:24:26.658Z,20.72
2018-07-21T06:25:26.654Z,20.84
2018-07-21T06:26:26.696Z,20.70
2018-07-21T06:27:26.636Z,20.70
2018-07-21T06:28:26.628Z,20.73
2018-07-21T06:29:26.628Z,20.87
2018-07-21T06:30:26.607Z,20.76
2018-07-21T06:31:26.692Z,20.91
2018-07-21T06:32:26.603Z,20.89
2018-07-21T06:33:26.598Z,20.89
2018-07-21T06:34:26.594Z,21.01
2018-07-21T06:35:26.641Z,20.94
2018-07-21T06:36:26.579Z,20.91
2018-07-21T06:37:26.579Z,20.94
2018-07-21T06:38:26.618Z,20.99
2018-07-21T06:39:26.563Z,20.91
2018-07-21T06:40:26.539Z,20.97
2018-07-21T06:41:26.545Z,20.94
2018-07-21T06:42:26.533Z,20.98
2018-07-21T06:43:26.523Z,20.97
2018-07-21T06:44:26.522Z,21.04
2018-07-21T06:45:26.511Z,21.12
2018-07-21T06:46:26.505Z,21.07
2018-07-21T06:47:26.502Z,21.14
2018-07-21T06:48:26.502Z,21.14
2018-07-21T06:49:26.872Z,21.17
2018-07-21T06:50:26.479Z,21.17
2018-07-21T06:51:26.463Z,21.22
2018-07-21T06:52:26.469Z,21.22
2018-07-21T06:53:26.454Z,21.24
2018-07-21T06:54:26.510Z,21.27
2018-07-21T06:55:26.473Z,21.21
2018-07-21T06:56:26.428Z,21.31
2018-07-21T06:57:26.429Z,21.19
2018-07-21T06:58:26.430Z,21.27
2018-07-21T06:59:26.416Z,21.24
2018-07-21T07:00:26.432Z,21.27
2018-07-21T07:01:26.416Z,21.31
2018-07-21T07:02:26.392Z,21.22
2018-07-21T07:03:26.386Z,21.21
2018-07-21T07:04:26.392Z,21.29
2018-07-21T07:05:26.442Z,21.28
2018-07-21T07:06:26.382Z,21.32
2018-07-21T07:07:26.354Z,21.27
2018-07-21T07:08:26.364Z,21.27
2018-07-21T07:09:26.343Z,21.32
2018-07-21T07:10:26.344Z,21.22
2018-07-21T07:11:26.376Z,21.25
2018-07-21T07:12:26.683Z,21.27
2018-07-21T07:13:26.324Z,21.25
2018-07-21T07:14:26.314Z,21.40
2018-07-21T07:15:26.306Z,21.34
2018-07-21T07:16:26.320Z,21.31
2018-07-21T07:17:26.305Z,21.37
2018-07-21T07:18:26.320Z,21.28
2018-07-21T07:19:26.296Z,21.32
2018-07-21T07:20:26.284Z,21.34
2018-07-21T07:21:26.269Z,21.35
2018-07-21T07:22:26.297Z,21.53
2018-07-21T07:23:26.264Z,21.49
2018-07-21T07:24:26.330Z,21.50
2018-07-21T07:25:26.245Z,21.47
2018-07-21T07:26:26.227Z,21.46
2018-07-21T07:27:26.277Z,21.43
2018-07-21T07:28:26.239Z,21.37
2018-07-21T07:29:26.220Z,21.53
2018-07-21T07:30:26.278Z,21.53
2018-07-21T07:31:26.211Z,21.44
2018-07-21T07:32:26.208Z,21.47
2018-07-21T07:33:26.202Z,21.46
2018-07-21T07:34:26.181Z,21.56
2018-07-21T07:35:26.184Z,21.52
2018-07-21T07:36:26.221Z,21.53
2018-07-21T07:37:26.169Z,21.52
2018-07-21T07:38:26.167Z,21.49
2018-07-21T07:39:26.236Z,21.46
2018-07-21T07:40:26.139Z,21.53
2018-07-21T07:41:26.145Z,21.64
2018-07-21T07:42:26.133Z,21.50
2018-07-21T07:43:26.138Z,21.52
2018-07-21T07:44:26.124Z,21.49
2018-07-21T07:45:26.143Z,21.38
2018-07-21T07:46:26.109Z,21.47
2018-07-21T07:47:26.105Z,21.43
2018-07-21T07:48:26.104Z,21.46
2018-07-21T07:49:26.089Z,21.46
2018-07-21T07:50:26.157Z,21.49
2018-07-21T07:51:26.076Z,21.46
2018-07-21T07:52:26.060Z,21.49
2018-07-21T07:53:26.117Z,21.52
2018-07-21T07:54:26.063Z,21.52
2018-07-21T07:55:26.053Z,21.54
2018-07-21T07:56:26.042Z,21.52
2018-07-21T07:57:26.047Z,21.54
2018-07-21T07:58:26.028Z,21.50
2018-07-21T07:59:26.104Z,21.56
2018-07-21T08:00:26.071Z,21.61
2018-07-21T08:01:26.045Z,21.61
2018-07-21T08:02:26.009Z,21.61
2018-07-21T08:03:25.988Z,21.59
2018-07-21T08:04:26.004Z,21.67
2018-07-21T08:05:25.999Z,21.59
2018-07-21T08:06:26.006Z,21.61
2018-07-21T08:07:26.068Z,21.68
2018-07-21T08:08:25.991Z,21.58
2018-07-21T08:09:25.960Z,21.65
2018-07-21T08:10:25.949Z,21.64
2018-07-21T08:11:25.940Z,21.58
2018-07-21T08:12:25.983Z,21.54
2018-07-21T08:13:26.004Z,21.58
2018-07-21T08:14:26.058Z,21.53
2018-07-21T08:15:26.062Z,21.53
2018-07-21T08:16:25.914Z,21.56
2018-07-21T08:17:25.909Z,21.53
2018-07-21T08:18:25.912Z,21.53
2018-07-21T08:19:25.935Z,21.56
2018-07-21T08:20:25.899Z,21.53
2018-07-21T08:21:25.927Z,21.54
2018-07-21T08:22:25.873Z,21.50
2018-07-21T08:23:25.885Z,21.50
2018-07-21T08:24:25.866Z,21.58
2018-07-21T08:25:25.866Z,21.58
2018-07-21T08:26:25.853Z,21.61
2018-07-21T08:27:25.844Z,21.64
2018-07-21T08:28:25.885Z,21.61
2018-07-21T08:29:25.836Z,21.64
2018-07-21T08:30:25.831Z,21.56
2018-07-21T08:31:25.817Z,21.64
2018-07-21T08:32:25.811Z,21.65
2018-07-21T08:33:25.830Z,21.77
2018-07-21T08:34:25.829Z,21.69
2018-07-21T08:35:25.802Z,21.64
2018-07-21T08:36:25.796Z,21.71
2018-07-21T08:37:25.788Z,21.71
2018-07-21T08:38:25.828Z,21.74
2018-07-21T08:39:25.775Z,21.62
2018-07-21T08:40:25.765Z,21.69
2018-07-21T08:41:25.759Z,21.64
2018-07-21T08:42:25.754Z,21.64
2018-07-21T08:43:25.754Z,21.68
2018-07-21T08:44:25.775Z,21.65
2018-07-21T08:45:25.758Z,21.61
2018-07-21T08:46:25.731Z,21.72
2018-07-21T08:47:25.713Z,21.67
2018-07-21T08:48:25.730Z,21.77
2018-07-21T08:49:25.706Z,21.77
2018-07-21T08:50:25.750Z,21.83
2018-07-21T08:51:25.699Z,21.75
2018-07-21T08:52:25.690Z,21.84
2018-07-21T08:53:25.689Z,21.84
2018-07-21T08:54:25.707Z,21.80
2018-07-21T08:55:25.670Z,21.83
2018-07-21T08:56:25.736Z,21.84
2018-07-21T08:57:25.662Z,21.80
2018-07-21T08:58:25.648Z,21.84
2018-07-21T08:59:25.655Z,21.83
2018-07-21T09:00:25.634Z,21.80
2018-07-21T09:01:25.635Z,21.80
2018-07-21T09:02:25.738Z,21.79
2018-07-21T09:03:25.626Z,21.83
2018-07-21T09:04:25.618Z,21.72
2018-07-21T09:05:25.612Z,21.80
2018-07-21T09:06:25.603Z,21.74
2018-07-21T09:07:25.598Z,21.80
2018-07-21T09:08:25.607Z,21.88
2018-07-21T09:09:25.594Z,21.84
2018-07-21T09:10:25.576Z,21.94
2018-07-21T09:11:25.566Z,21.86
2018-07-21T09:12:25.589Z,21.91
2018-07-21T09:13:25.594Z,21.88
2018-07-21T09:14:25.561Z,21.94
2018-07-21T09:15:25.552Z,21.90
2018-07-21T09:16:25.561Z,21.91
2018-07-21T09:17:25.540Z,21.98
2018-07-21T09:18:25.602Z,21.96
2018-07-21T09:19:25.543Z,21.96
2018-07-21T09:20:25.513Z,22.06
2018-07-21T09:21:25.540Z,21.96
2018-07-21T09:22:25.502Z,22.06
2018-07-21T09:23:25.507Z,21.99
2018-07-21T09:24:25.565Z,21.99
2018-07-21T09:25:25.496Z,21.99
2018-07-21T09:26:25.502Z,22.10
2018-07-21T09:27:25.481Z,22.06
2018-07-21T09:28:25.460Z,22.10
2018-07-21T09:29:25.462Z,22.09
2018-07-21T09:30:25.462Z,22.15
2018-07-21T09:31:25.439Z,22.18
2018-07-21T09:32:25.439Z,22.18
2018-07-21T09:33:25.433Z,22.24
2018-07-21T09:34:25.490Z,22.33
2018-07-21T09:35:25.419Z,22.37
2018-07-21T09:36:25.429Z,22.40
2018-07-21T09:37:25.419Z,22.54
2018-07-21T09:38:25.402Z,22.62
2018-07-21T09:39:25.402Z,22.72
2018-07-21T09:40:25.403Z,22.85
2018-07-21T09:41:25.387Z,23.01
2018-07-21T09:42:25.384Z,23.16
2018-07-21T09:43:25.380Z,23.39
2018-07-21T09:44:25.362Z,23.61
2018-07-21T09:45:25.372Z,23.75
2018-07-21T09:46:25.368Z,23.84
2018-07-21T09:47:25.362Z,23.91
2018-07-21T09:48:25.353Z,24.13
2018-07-21T09:49:25.370Z,24.32
2018-07-21T09:50:25.382Z,24.64
2018-07-21T09:51:25.348Z,24.69
2018-07-21T09:52:25.351Z,24.81
2018-07-21T09:53:25.351Z,25.02
2018-07-21T09:54:25.341Z,25.28
2018-07-21T09:55:25.341Z,25.75
2018-07-21T09:56:25.349Z,26.18
2018-07-21T09:57:25.333Z,26.51
2018-07-21T09:58:25.366Z,26.67
2018-07-21T09:59:25.341Z,26.89
2018-07-21T10:00:25.330Z,27.12
2018-07-21T10:01:25.372Z,27.49
2018-07-21T10:02:25.329Z,27.77
2018-07-21T10:03:25.331Z,28.11
2018-07-21T10:04:25.335Z,28.34
2018-07-21T10:05:25.330Z,28.70
2018-07-21T10:06:25.382Z,28.86
2018-07-21T10:07:25.366Z,28.93
2018-07-21T10:08:25.336Z,29.00
2018-07-21T10:09:25.336Z,29.08
2018-07-21T10:10:25.339Z,29.19
2018-07-21T10:11:25.374Z,29.23
2018-07-21T10:12:25.393Z,29.24
2018-07-21T10:13:25.337Z,29.09
2018-07-21T10:14:25.355Z,28.96
2018-07-21T10:15:25.412Z,28.78
2018-07-21T10:16:25.342Z,28.85
2018-07-21T10:17:25.344Z,29.11
2018-07-21T10:18:25.345Z,29.21
2018-07-21T10:19:25.347Z,29.11
2018-07-21T10:20:25.350Z,29.05
2018-07-21T10:21:25.353Z,29.00
2018-07-21T10:22:25.357Z,29.11
2018-07-21T10:23:25.431Z,29.21
2018-07-21T10:24:25.342Z,29.27
2018-07-21T10:25:25.349Z,29.41
2018-07-21T10:26:25.341Z,29.67
2018-07-21T10:27:25.347Z,29.80
2018-07-21T10:28:25.388Z,30.01
2018-07-21T10:29:25.375Z,29.97
2018-07-21T10:30:25.392Z,29.71
2018-07-21T10:31:25.362Z,29.78
2018-07-21T10:32:25.359Z,29.67
2018-07-21T10:33:25.501Z,29.65
2018-07-21T10:34:25.358Z,29.52
2018-07-21T10:35:25.369Z,29.42
2018-07-21T10:36:25.369Z,29.33
2018-07-21T10:37:25.365Z,29.21
2018-07-21T10:38:25.368Z,29.04
2018-07-21T10:39:25.361Z,28.83
2018-07-21T10:40:25.417Z,28.73
2018-07-21T10:41:25.424Z,28.58
2018-07-21T10:42:25.370Z,28.49
2018-07-21T10:43:25.363Z,28.34
2018-07-21T10:44:25.381Z,28.25
2018-07-21T10:45:25.359Z,28.02
2018-07-21T10:46:25.399Z,27.85
2018-07-21T10:47:25.360Z,27.87
2018-07-21T10:48:25.364Z,27.70
2018-07-21T10:49:25.375Z,27.63
2018-07-21T10:50:25.400Z,27.54
2018-07-21T10:51:25.367Z,27.41
2018-07-21T10:52:25.363Z,27.40
2018-07-21T10:53:25.364Z,27.24
2018-07-21T10:54:25.364Z,27.14
2018-07-21T10:55:25.406Z,27.10
2018-07-21T10:56:25.361Z,26.95
2018-07-21T10:57:25.346Z,26.95
2018-07-21T10:58:25.351Z,26.85
2018-07-21T10:59:25.352Z,26.76
2018-07-21T11:00:25.348Z,26.72
2018-07-21T11:01:25.407Z,26.67
2018-07-21T11:02:25.350Z,26.48
2018-07-21T11:03:25.341Z,26.54
2018-07-21T11:04:25.332Z,26.37
2018-07-21T11:05:25.343Z,26.39
2018-07-21T11:06:25.333Z,26.29
2018-07-21T11:07:25.346Z,26.32
2018-07-21T11:08:25.353Z,26.26
2018-07-21T11:09:25.330Z,26.02
2018-07-21T11:10:25.326Z,25.95
2018-07-21T11:11:25.324Z,25.98
2018-07-21T11:12:25.328Z,25.85
2018-07-21T11:13:25.352Z,25.90
2018-07-21T11:14:25.321Z,25.83
2018-07-21T11:15:25.470Z,25.76
2018-07-21T11:16:25.311Z,25.77
2018-07-21T11:17:25.311Z,25.75
2018-07-21T11:18:25.630Z,25.70
2018-07-21T11:19:25.309Z,25.65
2018-07-21T11:20:25.295Z,25.70
2018-07-21T11:21:25.288Z,25.69
2018-07-21T11:22:25.298Z,25.62
2018-07-21T11:23:25.296Z,25.61
2018-07-21T11:24:25.325Z,25.67
2018-07-21T11:25:25.280Z,25.65
2018-07-21T11:26:25.272Z,25.61
2018-07-21T11:27:25.274Z,25.58
2018-07-21T11:28:25.304Z,25.67
2018-07-21T11:29:25.278Z,25.58
2018-07-21T11:30:25.322Z,25.45
2018-07-21T11:31:25.268Z,25.57
2018-07-21T11:32:25.266Z,25.55
2018-07-21T11:33:25.262Z,25.51
2018-07-21T11:34:25.253Z,25.50
2018-07-21T11:35:25.289Z,25.54
2018-07-21T11:36:25.369Z,25.52
2018-07-21T11:37:25.250Z,25.45
2018-07-21T11:38:25.258Z,25.54
2018-07-21T11:39:25.231Z,25.43
2018-07-21T11:40:25.248Z,25.43
2018-07-21T11:41:25.230Z,25.50
2018-07-21T11:42:25.236Z,25.36
2018-07-21T11:43:25.212Z,25.40
2018-07-21T11:44:25.254Z,25.33
2018-07-21T11:45:25.223Z,25.36
2018-07-21T11:46:25.248Z,25.38
2018-07-21T11:47:25.217Z,25.35
2018-07-21T11:48:25.198Z,25.35
2018-07-21T11:49:25.201Z,25.30
2018-07-21T11:50:25.197Z,25.24
2018-07-21T11:51:25.269Z,25.33
2018-07-21T11:52:25.182Z,25.27
2018-07-21T11:53:25.192Z,25.28
2018-07-21T11:54:25.183Z,25.27
2018-07-21T11:55:25.177Z,25.32
2018-07-21T11:56:25.169Z,25.32
2018-07-21T11:57:25.184Z,25.36
2018-07-21T11:58:25.166Z,25.30
2018-07-21T11:59:25.164Z,25.32
2018-07-21T12:00:25.157Z,25.28
2018-07-21T12:01:25.203Z,25.27
2018-07-21T12:02:25.145Z,25.23
2018-07-21T12:03:25.141Z,25.24
2018-07-21T12:04:25.157Z,25.32
2018-07-21T12:05:25.170Z,25.32
2018-07-21T12:06:25.137Z,25.24
2018-07-21T12:07:25.134Z,25.39
2018-07-21T12:08:25.134Z,25.38
2018-07-21T12:09:25.485Z,25.35
2018-07-21T12:10:25.126Z,25.35
2018-07-21T12:11:25.122Z,25.40
2018-07-21T12:12:25.119Z,25.36
2018-07-21T12:13:25.189Z,25.24
2018-07-21T12:14:25.113Z,25.27
2018-07-21T12:15:25.146Z,25.32
2018-07-21T12:16:25.120Z,25.24
2018-07-21T12:17:25.097Z,25.21
2018-07-21T12:18:25.103Z,25.27
2018-07-21T12:19:25.090Z,25.28
2018-07-21T12:20:25.191Z,25.27
2018-07-21T12:21:25.084Z,25.25
2018-07-21T12:22:25.091Z,25.21
2018-07-21T12:23:25.077Z,25.17
2018-07-21T12:24:25.072Z,25.18
2018-07-21T12:25:25.101Z,25.10
2018-07-21T12:26:25.084Z,25.15
2018-07-21T12:27:25.063Z,25.09
2018-07-21T12:28:25.144Z,25.20
2018-07-21T12:29:25.073Z,25.08
2018-07-21T12:30:25.080Z,25.13
2018-07-21T12:31:25.049Z,25.13
2018-07-21T12:32:25.041Z,25.10
2018-07-21T12:33:25.041Z,25.18
2018-07-21T12:34:25.037Z,25.03
2018-07-21T12:35:25.067Z,25.08
2018-07-21T12:36:25.035Z,25.15
2018-07-21T12:37:25.056Z,25.13
2018-07-21T12:38:25.028Z,25.09
2018-07-21T12:39:25.039Z,25.17
2018-07-21T12:40:25.019Z,25.13
2018-07-21T12:41:25.005Z,25.13
2018-07-21T12:42:25.055Z,24.98
2018-07-21T12:43:25.003Z,25.09
2018-07-21T12:44:25.010Z,25.02
2018-07-21T12:45:25.054Z,25.05
2018-07-21T12:46:24.982Z,25.03
2018-07-21T12:47:24.991Z,25.10
2018-07-21T12:48:24.984Z,25.18
2018-07-21T12:49:24.980Z,25.05
2018-07-21T12:50:24.985Z,25.13
2018-07-21T12:51:24.976Z,25.15
2018-07-21T12:52:24.963Z,25.10